createdAt,value
2022-12-14T00:00:11.599Z,53.60
2022-12-14T00:02:38.596Z,50.42
2022-12-14T00:05:05.630Z,55.72
2022-12-14T00:07:32.287Z,52.85
2022-12-14T00:09:58.955Z,55.05
2022-12-14T00:12:25.585Z,59.42
2022-12-14T00:14:52.237Z,51.45
2022-12-14T00:17:18.940Z,55.53
2022-12-14T00:19:45.626Z,57.63
2022-12-14T00:22:15.680Z,57.83
2022-12-14T00:24:42.377Z,53.80
2022-12-14T00:27:09.094Z,58.58
2022-12-14T00:29:35.778Z,56.30
2022-12-14T00:32:02.516Z,54.40
2022-12-14T00:34:29.207Z,57.60
2022-12-14T00:36:55.841Z,54.65
2022-12-14T00:39:22.529Z,53.45
2022-12-14T00:41:49.189Z,54.47
2022-12-14T00:44:15.865Z,54.70
2022-12-14T00:46:42.658Z,56.00
2022-12-14T00:49:10.697Z,55.17
2022-12-14T00:51:37.454Z,55.35
2022-12-14T00:54:04.500Z,57.13
2022-12-14T00:56:31.200Z,57.50
2022-12-14T00:58:57.866Z,54.65
2022-12-14T01:01:24.666Z,57.92
2022-12-14T01:03:51.610Z,54.67
2022-12-14T01:06:20.895Z,54.38
2022-12-14T01:08:48.903Z,57.97
2022-12-14T01:11:15.815Z,57.83
2022-12-14T01:13:42.737Z,56.10
2022-12-14T01:16:12.892Z,51.45
2022-12-14T01:18:41.455Z,49.53
2022-12-14T01:21:28.427Z,51.95
2022-12-14T01:23:57.928Z,55.85
2022-12-14T01:26:26.334Z,53.20
2022-12-14T01:28:55.683Z,50.38
2022-12-14T01:31:24.643Z,52.42
2022-12-14T01:33:51.419Z,52.53
2022-12-14T01:36:25.296Z,52.63
2022-12-14T01:38:56.789Z,53.22
2022-12-14T01:41:30.816Z,51.15
2022-12-14T01:43:58.863Z,51.88
2022-12-14T01:46:29.630Z,54.22
2022-12-14T01:49:01.552Z,53.40
2022-12-14T01:51:31.428Z,58.58
2022-12-14T01:54:00.933Z,49.95
2022-12-14T01:56:29.488Z,53.75
2022-12-14T01:58:58.968Z,52.28
2022-12-14T02:01:25.710Z,55.47
2022-12-14T02:03:53.364Z,54.90
2022-12-14T02:06:26.748Z,55.67
2022-12-14T02:08:54.714Z,54.60
2022-12-14T02:12:00.446Z,53.28
2022-12-14T02:14:27.326Z,56.13
2022-12-14T02:16:55.748Z,51.72
2022-12-14T02:19:23.127Z,54.17
2022-12-14T02:22:18.217Z,54.50
2022-12-14T02:24:59.305Z,50.00
2022-12-14T02:28:07.986Z,53.03
2022-12-14T02:30:40.539Z,58.13
2022-12-14T02:33:23.842Z,53.55
2022-12-14T02:36:22.150Z,56.10
2022-12-14T02:39:07.378Z,54.40
2022-12-14T02:42:01.042Z,50.38
2022-12-14T02:44:39.960Z,55.05
2022-12-14T02:47:11.580Z,53.30
2022-12-14T02:50:08.224Z,56.65
2022-12-14T02:52:37.870Z,50.70
2022-12-14T02:55:26.015Z,54.58
2022-12-14T02:58:41.348Z,55.95
2022-12-14T03:01:16.591Z,55.78
2022-12-14T03:03:43.575Z,56.25
2022-12-14T03:06:28.350Z,51.95
2022-12-14T03:09:05.287Z,52.13
2022-12-14T03:11:43.874Z,51.80
2022-12-14T03:14:18.143Z,53.85
2022-12-14T03:16:48.726Z,56.58
2022-12-14T03:19:27.907Z,55.97
2022-12-14T03:21:58.821Z,54.33
2022-12-14T03:24:32.482Z,58.22
2022-12-14T03:27:07.600Z,54.55
2022-12-14T03:29:41.850Z,54.85
2022-12-14T03:32:21.077Z,59.63
2022-12-14T03:35:13.548Z,53.70
2022-12-14T03:37:53.100Z,53.10
2022-12-14T03:40:46.368Z,55.97
2022-12-14T03:43:26.913Z,54.45
2022-12-14T03:46:17.134Z,53.35
2022-12-14T03:48:50.251Z,51.30
2022-12-14T03:51:40.640Z,58.90
2022-12-14T03:54:26.041Z,57.50
2022-12-14T03:57:04.914Z,38.65
2022-12-14T03:59:51.320Z,55.17
2022-12-14T04:02:40.619Z,54.60
2022-12-14T04:05:51.356Z,49.92
2022-12-14T04:08:40.442Z,55.78
2022-12-14T04:11:10.767Z,50.50
2022-12-14T04:14:00.106Z,52.95
2022-12-14T04:16:33.150Z,53.17
2022-12-14T04:19:05.293Z,51.40
2022-12-14T04:21:49.144Z,58.25
2022-12-14T04:24:24.450Z,58.35
2022-12-14T04:27:04.028Z,52.20
2022-12-14T04:29:34.081Z,52.85
2022-12-14T04:33:01.647Z,53.95
2022-12-14T04:35:30.803Z,52.53
2022-12-14T04:38:25.080Z,50.72
2022-12-14T04:40:55.685Z,53.92
2022-12-14T04:43:25.928Z,49.47
2022-12-14T04:45:57.406Z,55.33
2022-12-14T04:48:47.916Z,56.10
2022-12-14T04:51:35.847Z,49.97
2022-12-14T04:54:18.887Z,53.72
2022-12-14T04:57:08.622Z,49.03
2022-12-14T04:59:36.214Z,51.67
2022-12-14T05:02:11.228Z,50.92
2022-12-14T05:04:43.878Z,48.17
2022-12-14T05:07:23.274Z,46.22
2022-12-14T05:09:58.870Z,49.55
2022-12-14T05:12:44.991Z,47.40
2022-12-14T05:15:23.637Z,53.13
2022-12-14T05:17:50.691Z,50.55
2022-12-14T05:20:23.208Z,50.58
2022-12-14T05:22:50.425Z,49.40
2022-12-14T05:25:17.181Z,54.95
2022-12-14T05:27:43.987Z,46.50
2022-12-14T05:30:11.319Z,48.15
2022-12-14T05:32:38.119Z,49.40
2022-12-14T05:35:05.397Z,51.70
2022-12-14T05:37:32.086Z,49.35
2022-12-14T05:39:58.789Z,52.67
2022-12-14T05:42:25.454Z,49.83
2022-12-14T05:44:52.143Z,46.67
2022-12-14T05:47:18.849Z,47.75
2022-12-14T05:49:45.542Z,46.08
2022-12-14T05:52:16.378Z,47.42
2022-12-14T05:54:43.090Z,50.10
2022-12-14T05:57:10.063Z,48.70
2022-12-14T05:59:36.790Z,47.22
2022-12-14T06:02:03.495Z,49.03
2022-12-14T06:04:30.410Z,45.75
2022-12-14T06:06:57.533Z,47.35
2022-12-14T06:09:24.204Z,51.65
2022-12-14T06:11:51.010Z,48.78
2022-12-14T06:14:18.150Z,46.45
2022-12-14T06:16:46.121Z,47.33
2022-12-14T06:19:14.487Z,52.85
2022-12-14T06:21:42.686Z,51.63
2022-12-14T06:24:11.526Z,43.17
2022-12-14T06:26:39.072Z,43.55
2022-12-14T06:29:05.756Z,49.70
2022-12-14T06:31:33.492Z,48.72
2022-12-14T06:34:02.316Z,47.33
2022-12-14T06:36:34.668Z,49.67
2022-12-14T06:39:04.370Z,51.13
2022-12-14T06:41:31.463Z,47.22
2022-12-14T06:44:03.588Z,42.88
2022-12-14T06:46:30.303Z,49.47
2022-12-14T06:48:57.240Z,48.05
2022-12-14T06:51:24.605Z,51.35
2022-12-14T06:53:52.846Z,47.45
2022-12-14T06:56:20.832Z,46.03
2022-12-14T06:58:47.778Z,56.17
2022-12-14T07:01:17.341Z,48.33
2022-12-14T07:03:48.272Z,73.55
2022-12-14T07:06:15.225Z,59.35
2022-12-14T07:08:42.012Z,54.80
2022-12-14T07:11:12.166Z,56.95
2022-12-14T07:13:40.028Z,53.28
2022-12-14T07:16:07.973Z,52.30
2022-12-14T07:18:34.951Z,51.25
2022-12-14T07:21:07.859Z,51.63
2022-12-14T07:23:36.761Z,54.53
2022-12-14T07:26:04.818Z,52.97
2022-12-14T07:28:32.400Z,53.22
2022-12-14T07:31:00.106Z,45.65
2022-12-14T07:33:28.215Z,53.28
2022-12-14T07:36:03.948Z,50.22
2022-12-14T07:41:09.878Z,47.70
2022-12-14T07:43:41.078Z,43.13
2022-12-14T07:46:14.141Z,49.15
2022-12-14T07:48:48.471Z,46.75
2022-12-14T07:51:17.679Z,115.57
2022-12-14T07:53:44.425Z,59.67
2022-12-14T07:56:16.505Z,47.08
2022-12-14T07:58:43.233Z,49.42
2022-12-14T08:01:11.445Z,57.40
2022-12-14T08:03:39.995Z,50.47
2022-12-14T08:06:08.115Z,53.72
2022-12-14T08:08:35.404Z,50.15
2022-12-14T08:11:02.777Z,50.58
2022-12-14T08:13:30.271Z,50.03
2022-12-14T08:16:05.414Z,49.15
2022-12-14T08:18:32.569Z,50.42
2022-12-14T08:20:59.909Z,48.97
2022-12-14T08:23:26.995Z,45.30
2022-12-14T08:25:58.729Z,53.63
2022-12-14T08:28:27.183Z,54.03
2022-12-14T08:30:54.057Z,51.85
2022-12-14T08:33:21.398Z,50.67
2022-12-14T08:35:48.427Z,45.85
2022-12-14T08:38:15.504Z,46.92
2022-12-14T08:40:42.507Z,49.30
2022-12-14T08:43:09.837Z,49.22
2022-12-14T08:45:36.697Z,49.15
2022-12-14T08:48:03.603Z,45.90
2022-12-14T08:50:30.992Z,49.95
2022-12-14T08:52:57.666Z,52.05
2022-12-14T08:55:29.114Z,46.00
2022-12-14T08:57:56.018Z,54.08
2022-12-14T09:00:22.736Z,50.40
2022-12-14T09:02:50.970Z,47.28
2022-12-14T09:05:17.984Z,52.40
2022-12-14T09:07:44.709Z,44.70
2022-12-14T09:10:11.630Z,48.58
2022-12-14T09:12:38.447Z,48.22
2022-12-14T09:15:07.245Z,47.28
2022-12-14T09:17:34.121Z,48.00
2022-12-14T09:20:01.060Z,45.08
2022-12-14T09:22:28.081Z,47.75
2022-12-14T09:24:55.462Z,44.92
2022-12-14T09:27:22.577Z,48.70
2022-12-14T09:29:50.237Z,43.78
2022-12-14T09:32:17.356Z,46.50
2022-12-14T09:34:44.136Z,45.40
2022-12-14T09:37:10.827Z,46.22
2022-12-14T09:39:37.576Z,44.20
2022-12-14T09:42:22.937Z,44.03
2022-12-14T09:45:10.467Z,44.75
2022-12-14T09:47:54.964Z,47.38
2022-12-14T09:50:23.236Z,46.83
2022-12-14T09:52:53.323Z,49.92
2022-12-14T09:55:28.779Z,50.10
2022-12-14T09:58:06.654Z,48.20
2022-12-14T10:00:39.756Z,51.90
2022-12-14T10:03:09.740Z,45.30
2022-12-14T10:05:57.546Z,46.15
2022-12-14T10:08:41.821Z,50.83
2022-12-14T10:11:27.965Z,45.03
2022-12-14T10:14:25.068Z,46.60
2022-12-14T10:17:06.640Z,47.42
2022-12-14T10:19:43.698Z,43.50
2022-12-14T10:22:22.593Z,46.65
2022-12-14T10:24:59.351Z,47.08
2022-12-14T10:27:47.721Z,42.13
2022-12-14T10:30:18.645Z,43.63
2022-12-14T10:32:49.929Z,41.20
2022-12-14T10:35:19.919Z,44.10
2022-12-14T10:37:58.575Z,43.05
2022-12-14T10:40:34.969Z,44.50
2022-12-14T10:43:23.564Z,43.13
2022-12-14T10:45:59.320Z,43.30
2022-12-14T10:48:51.720Z,48.92
2022-12-14T10:51:44.468Z,40.72
2022-12-14T10:54:38.717Z,41.30
2022-12-14T10:57:05.640Z,41.75
2022-12-14T10:59:42.305Z,48.58
2022-12-14T11:02:23.157Z,47.10
2022-12-14T11:05:00.315Z,42.65
2022-12-14T11:07:38.541Z,39.63
2022-12-14T11:10:27.607Z,43.90
2022-12-14T11:13:07.656Z,41.03
2022-12-14T11:15:41.158Z,45.72
2022-12-14T11:18:17.263Z,41.65
2022-12-14T11:21:05.546Z,42.85
2022-12-14T11:23:43.704Z,39.75
2022-12-14T11:26:18.602Z,39.22
2022-12-14T11:28:58.241Z,40.35
2022-12-14T11:31:36.730Z,41.67
2022-12-14T11:34:22.151Z,38.70
2022-12-14T11:36:49.593Z,41.92
2022-12-14T11:39:23.706Z,42.45
2022-12-14T11:42:00.194Z,42.28
2022-12-14T11:44:37.137Z,37.35
2022-12-14T11:47:15.399Z,39.78
2022-12-14T11:49:42.054Z,36.85
2022-12-14T11:52:12.823Z,38.42
2022-12-14T11:54:50.236Z,41.65
2022-12-14T11:57:25.298Z,36.25
2022-12-14T12:00:29.087Z,35.88
2022-12-14T12:02:59.494Z,39.92
2022-12-14T12:05:27.883Z,34.92
2022-12-14T12:07:57.613Z,37.67
2022-12-14T12:10:27.628Z,41.53
2022-12-14T12:13:00.677Z,38.22
2022-12-14T12:15:35.094Z,36.38
2022-12-14T12:18:07.986Z,41.63
2022-12-14T12:21:01.110Z,37.53
2022-12-14T12:23:45.897Z,38.17
2022-12-14T12:26:22.727Z,38.10
2022-12-14T12:28:59.210Z,37.50
2022-12-14T12:31:40.812Z,40.88
2022-12-14T12:34:17.931Z,40.33
2022-12-14T12:37:09.687Z,36.45
2022-12-14T12:39:35.072Z,37.53
2022-12-14T12:42:20.794Z,39.25
2022-12-14T12:45:18.842Z,38.58
2022-12-14T12:47:53.080Z,72.65
2022-12-14T12:50:26.757Z,42.10
2022-12-14T12:53:03.096Z,49.35
2022-12-14T12:55:37.039Z,39.55
2022-12-14T12:58:05.182Z,40.15
2022-12-14T13:00:33.648Z,37.38
2022-12-14T13:03:18.926Z,41.10
2022-12-14T13:05:48.485Z,36.47
2022-12-14T13:08:26.064Z,38.70
2022-12-14T13:11:24.667Z,32.63
2022-12-14T13:13:51.761Z,34.10
2022-12-14T20:20:32.855Z,118.65
2022-12-14T20:25:22.892Z,113.95
2022-12-14T20:27:52.113Z,106.75
2022-12-14T20:30:18.867Z,107.68
2022-12-14T20:32:49.258Z,105.25
2022-12-14T20:35:17.359Z,106.25
2022-12-14T20:37:45.666Z,110.43
2022-12-14T20:40:12.689Z,112.72
2022-12-14T20:42:39.476Z,114.45
2022-12-14T20:45:07.626Z,138.40
2022-12-14T20:47:34.767Z,181.57
2022-12-14T20:50:01.590Z,236.20
2022-12-14T20:52:28.279Z,232.73
2022-12-14T20:54:55.633Z,259.23
2022-12-14T20:57:22.411Z,253.45
2022-12-14T20:59:49.221Z,269.67
2022-12-14T21:02:17.869Z,290.00
2022-12-14T21:04:45.083Z,252.93
2022-12-14T21:07:12.121Z,208.95
2022-12-14T21:09:38.787Z,159.95
2022-12-14T21:12:05.566Z,117.70
2022-12-14T21:14:37.607Z,125.35
2022-12-14T21:17:05.427Z,112.18
2022-12-14T21:19:33.157Z,111.03
2022-12-14T21:22:00.161Z,112.25
2022-12-14T21:27:25.540Z,109.78
2022-12-14T21:29:52.679Z,109.90
2022-12-14T21:32:21.187Z,112.13
2022-12-14T21:34:48.580Z,112.07
2022-12-14T21:37:15.858Z,105.35
2022-12-14T21:39:43.707Z,107.82
2022-12-14T21:42:13.365Z,116.68
2022-12-14T21:44:45.359Z,114.28
2022-12-14T21:47:18.556Z,116.47
2022-12-14T21:49:46.099Z,115.10
2022-12-14T21:52:22.084Z,116.25
2022-12-14T21:54:48.943Z,115.97
2022-12-14T21:57:17.876Z,128.45
2022-12-14T21:59:44.728Z,127.85
2022-12-14T22:02:21.568Z,114.45
2022-12-14T22:04:48.801Z,122.00
2022-12-14T22:07:20.513Z,117.18
2022-12-14T22:09:49.730Z,119.30
2022-12-14T22:12:18.336Z,114.32
2022-12-14T22:14:45.019Z,124.22
2022-12-14T22:17:12.992Z,115.43
2022-12-14T22:19:39.678Z,112.97
2022-12-14T22:22:06.712Z,121.28
2022-12-14T22:24:33.568Z,115.88
2022-12-14T22:27:00.525Z,117.03
2022-12-14T22:29:27.587Z,121.07
2022-12-14T22:31:54.623Z,113.35
2022-12-14T22:34:23.296Z,118.75
2022-12-14T22:36:51.271Z,121.82
2022-12-14T22:39:19.889Z,118.50
2022-12-14T22:41:46.732Z,123.72
2022-12-14T22:44:14.089Z,118.72
2022-12-14T22:46:41.277Z,118.95
2022-12-14T22:49:08.496Z,118.38
2022-12-14T22:51:36.023Z,124.43
2022-12-14T22:54:03.088Z,124.97
2022-12-14T22:56:41.638Z,119.57
2022-12-14T22:59:14.160Z,118.47
2022-12-14T23:01:41.559Z,127.75
2022-12-14T23:04:10.949Z,131.35
2022-12-14T23:06:38.615Z,122.20
2022-12-14T23:09:05.883Z,121.63
2022-12-14T23:11:33.293Z,126.13
2022-12-14T23:14:00.028Z,121.45
2022-12-14T23:16:26.985Z,128.95
2022-12-14T23:18:53.688Z,125.85
2022-12-14T23:21:20.809Z,124.68
2022-12-14T23:23:47.478Z,121.47
2022-12-14T23:26:14.191Z,121.00
2022-12-14T23:28:40.998Z,127.07
2022-12-14T23:31:07.845Z,123.75
2022-12-14T23:33:35.143Z,120.65
2022-12-14T23:36:01.922Z,127.32
2022-12-14T23:38:28.598Z,124.97
2022-12-14T23:41:00.114Z,124.75
2022-12-14T23:43:26.982Z,121.10
2022-12-14T23:45:54.042Z,126.00
2022-12-14T23:48:20.791Z,125.78
2022-12-14T23:50:47.476Z,130.98
2022-12-14T23:53:14.163Z,132.20
2022-12-14T23:55:40.953Z,134.50
2022-12-14T23:58:07.657Z,132.93
